createdAt,value
2018-09-02T00:00:32.561Z,11.13
2018-09-02T00:03:07.041Z,7.33
2018-09-02T00:05:41.502Z,7.80
2018-09-02T00:08:22.824Z,8.50
2018-09-02T00:10:57.471Z,8.80
2018-09-02T00:13:32.008Z,9.23
2018-09-02T00:16:07.260Z,9.10
2018-09-02T00:18:41.778Z,9.53
2018-09-02T00:21:16.370Z,9.47
2018-09-02T00:23:51.077Z,10.53
2018-09-02T00:26:25.632Z,12.27
2018-09-02T00:29:00.705Z,10.23
2018-09-02T00:31:35.333Z,10.40
2018-09-02T00:37:09.659Z,8.83
2018-09-02T00:39:44.436Z,16.30
2018-09-02T00:42:19.075Z,10.30
2018-09-02T00:44:53.540Z,11.33
2018-09-02T00:47:28.208Z,9.13
2018-09-02T00:50:03.188Z,13.60
2018-09-02T00:52:37.981Z,11.77
2018-09-02T00:55:12.584Z,9.10
2018-09-02T00:57:47.085Z,12.20
2018-09-02T01:00:21.928Z,8.37
2018-09-02T01:02:56.825Z,12.00
2018-09-02T01:05:31.593Z,9.73
2018-09-02T01:08:06.601Z,14.43
2018-09-02T01:10:41.161Z,12.50
2018-09-02T01:16:25.665Z,12.83
2018-09-02T01:19:00.219Z,14.47
2018-09-02T01:21:35.023Z,13.83
2018-09-02T01:24:09.984Z,9.60
2018-09-02T01:26:44.408Z,13.60
2018-09-02T01:29:19.056Z,12.83
2018-09-02T01:31:53.895Z,12.27
2018-09-02T01:34:28.524Z,11.13
2018-09-02T01:37:02.944Z,10.30
2018-09-02T01:39:37.404Z,11.57
2018-09-02T01:42:12.164Z,11.40
2018-09-02T01:44:46.512Z,10.13
2018-09-02T01:47:21.076Z,11.37
2018-09-02T01:49:57.649Z,11.57
2018-09-02T01:52:32.108Z,11.13
2018-09-02T01:55:06.696Z,11.63
2018-09-02T01:57:41.284Z,11.67
2018-09-02T02:00:16.804Z,10.00
2018-09-02T02:02:51.744Z,19.10
2018-09-02T02:05:26.276Z,12.37
2018-09-02T02:08:00.780Z,13.30
2018-09-02T02:10:35.948Z,10.53
2018-09-02T02:13:10.472Z,12.03
2018-09-02T02:15:45.100Z,11.03
2018-09-02T02:18:19.661Z,14.33
2018-09-02T02:20:54.183Z,14.33
2018-09-02T02:23:28.841Z,13.30
2018-09-02T02:26:03.460Z,13.23
2018-09-02T02:28:38.000Z,13.53
2018-09-02T02:31:12.594Z,12.30
2018-09-02T02:33:47.161Z,13.90
2018-09-02T02:36:21.822Z,16.67
2018-09-02T02:38:56.505Z,13.93
2018-09-02T02:41:30.844Z,13.43
2018-09-02T02:44:05.656Z,13.03
2018-09-02T02:46:40.089Z,12.17
2018-09-02T02:49:14.376Z,17.70
2018-09-02T02:51:48.969Z,13.50
2018-09-02T02:54:23.566Z,15.20
2018-09-02T02:56:58.069Z,13.80
2018-09-02T02:59:32.636Z,16.87
2018-09-02T03:02:07.148Z,15.10
2018-09-02T03:04:42.159Z,12.93
2018-09-02T03:07:16.761Z,13.67
2018-09-02T03:09:51.423Z,14.20
2018-09-02T03:12:26.210Z,11.57
2018-09-02T03:15:00.772Z,13.70
2018-09-02T03:17:35.429Z,12.43
2018-09-02T03:20:09.996Z,14.93
2018-09-02T03:22:44.528Z,15.10
2018-09-02T03:25:19.085Z,12.67
2018-09-02T03:27:53.701Z,13.50
2018-09-02T03:30:28.215Z,12.90
2018-09-02T03:33:02.597Z,14.83
2018-09-02T03:35:37.003Z,13.70
2018-09-02T03:38:11.771Z,18.13
2018-09-02T03:40:46.332Z,15.10
2018-09-02T03:43:20.872Z,15.50
2018-09-02T03:45:55.197Z,16.10
2018-09-02T03:48:30.085Z,13.53
2018-09-02T03:51:04.670Z,13.53
2018-09-02T03:53:39.276Z,13.37
2018-09-02T03:56:13.797Z,13.93
2018-09-02T03:58:48.768Z,15.83
2018-09-02T04:01:23.299Z,16.13
2018-09-02T04:03:57.701Z,15.67
2018-09-02T04:06:32.209Z,16.23
2018-09-02T04:09:08.888Z,17.83
2018-09-02T04:11:43.421Z,16.77
2018-09-02T04:14:18.048Z,17.97
2018-09-02T04:16:52.977Z,16.03
2018-09-02T04:19:27.597Z,16.97
2018-09-02T04:22:02.247Z,18.33
2018-09-02T04:24:36.993Z,14.93
2018-09-02T04:27:11.600Z,18.97
2018-09-02T04:29:46.527Z,19.00
2018-09-02T04:32:20.967Z,15.17
2018-09-02T04:34:55.476Z,16.70
2018-09-02T04:37:29.958Z,14.37
2018-09-02T04:40:04.439Z,14.93
2018-09-02T04:42:38.985Z,17.03
2018-09-02T04:45:13.573Z,16.00
2018-09-02T04:47:48.091Z,15.03
2018-09-02T04:50:22.616Z,17.30
2018-09-02T04:52:57.106Z,17.33
2018-09-02T04:55:31.672Z,17.03
2018-09-02T04:58:06.156Z,17.40
2018-09-02T05:00:40.885Z,16.23
2018-09-02T05:03:15.505Z,13.77
2018-09-02T05:05:50.377Z,14.43
2018-09-02T05:08:25.036Z,17.07
2018-09-02T05:10:59.539Z,14.57
2018-09-02T05:13:34.062Z,15.33
2018-09-02T05:16:08.449Z,17.87
2018-09-02T05:18:43.166Z,18.37
2018-09-02T05:30:15.325Z,12.80
2018-09-02T05:32:50.156Z,13.97
2018-09-02T05:35:24.750Z,14.70
2018-09-02T05:37:59.108Z,11.20
2018-09-02T05:40:33.672Z,11.93
2018-09-02T05:43:08.271Z,11.93
2018-09-02T05:45:43.041Z,8.67
2018-09-02T05:48:17.605Z,11.60
2018-09-02T05:50:52.072Z,10.60
2018-09-02T05:53:26.757Z,9.13
2018-09-02T05:56:01.276Z,7.47
2018-09-02T05:58:35.897Z,8.50
2018-09-02T06:01:10.424Z,8.93
2018-09-02T06:03:44.940Z,8.77
2018-09-02T06:06:19.762Z,8.67
2018-09-02T06:08:54.324Z,7.20
2018-09-02T06:11:28.735Z,9.57
2018-09-02T06:17:12.809Z,6.83
2018-09-02T06:19:47.412Z,5.73
2018-09-02T06:22:22.014Z,6.90
2018-09-02T06:24:56.541Z,4.73
2018-09-02T06:27:31.163Z,4.90
2018-09-02T06:30:06.061Z,4.93
2018-09-02T06:32:40.520Z,7.30
2018-09-02T06:35:15.007Z,5.07
2018-09-02T06:37:49.445Z,4.80
2018-09-02T06:40:24.401Z,4.00
2018-09-02T06:42:59.100Z,4.47
2018-09-02T06:45:33.738Z,5.03
2018-09-02T06:48:08.064Z,4.90
2018-09-02T06:50:42.668Z,5.63
2018-09-02T06:53:17.698Z,5.03
2018-09-02T06:55:52.404Z,4.03
2018-09-02T06:58:27.021Z,3.30
2018-09-02T07:01:01.484Z,4.03
2018-09-02T07:03:36.224Z,3.50
2018-09-02T07:06:10.696Z,4.70
2018-09-02T07:08:45.276Z,3.43
2018-09-02T07:11:19.854Z,4.60
2018-09-02T07:13:54.756Z,3.03
2018-09-02T07:16:29.348Z,3.03
2018-09-02T07:19:04.549Z,2.70
2018-09-02T07:21:38.963Z,3.97
2018-09-02T07:24:13.429Z,3.37
2018-09-02T07:26:57.853Z,5.07
2018-09-02T07:29:32.381Z,3.77
2018-09-02T07:32:06.884Z,3.60
2018-09-02T07:34:41.377Z,5.53
2018-09-02T07:37:15.969Z,3.90
2018-09-02T07:39:50.348Z,4.70
2018-09-02T07:42:24.826Z,6.63
2018-09-02T07:44:59.356Z,5.33
2018-09-02T07:47:33.850Z,5.60
2018-09-02T07:50:08.447Z,6.20
2018-09-02T07:52:43.012Z,2.90
2018-09-02T07:55:17.541Z,3.50
2018-09-02T07:57:52.230Z,3.33
2018-09-02T08:00:26.804Z,4.17
2018-09-02T08:03:01.341Z,2.80
2018-09-02T08:05:36.017Z,3.27
2018-09-02T08:08:10.645Z,6.80
2018-09-02T08:10:45.039Z,3.07
2018-09-02T08:13:19.970Z,4.50
2018-09-02T08:15:54.365Z,5.17
2018-09-02T08:18:28.838Z,4.40
2018-09-02T08:21:05.566Z,2.83
2018-09-02T08:23:40.348Z,3.50
2018-09-02T08:26:14.964Z,3.50
2018-09-02T08:28:49.592Z,4.80
2018-09-02T08:31:24.922Z,4.40
2018-09-02T08:33:59.486Z,3.47
2018-09-02T08:36:34.368Z,4.17
2018-09-02T08:39:10.636Z,3.37
2018-09-02T08:41:45.087Z,3.13
2018-09-02T08:44:19.673Z,2.97
2018-09-02T08:46:54.013Z,2.60
2018-09-02T08:49:28.529Z,5.57
2018-09-02T08:52:04.145Z,3.53
2018-09-02T08:57:38.176Z,4.73
2018-09-02T09:00:13.973Z,3.70
2018-09-02T09:02:49.769Z,3.17
2018-09-02T09:05:24.494Z,4.93
2018-09-02T09:07:59.145Z,6.60
2018-09-02T09:10:33.636Z,4.83
2018-09-02T09:13:07.981Z,3.63
2018-09-02T09:15:42.292Z,2.80
2018-09-02T09:18:16.761Z,5.27
2018-09-02T09:20:51.535Z,3.67
2018-09-02T09:23:25.960Z,3.80
2018-09-02T09:26:00.404Z,3.93
2018-09-02T09:28:34.965Z,3.93
2018-09-02T09:31:09.932Z,3.50
2018-09-02T09:33:44.480Z,3.50
2018-09-02T09:36:19.022Z,3.63
2018-09-02T09:38:53.480Z,3.40
2018-09-02T09:41:28.105Z,3.03
2018-09-02T09:44:02.568Z,4.03
2018-09-02T09:46:37.012Z,4.33
2018-09-02T09:49:11.607Z,5.67
2018-09-02T09:51:45.981Z,4.47
2018-09-02T09:54:20.754Z,4.50
2018-09-02T09:56:55.256Z,5.07
2018-09-02T09:59:29.804Z,3.37
2018-09-02T10:02:04.269Z,5.60
2018-09-02T10:04:38.935Z,3.47
2018-09-02T10:07:13.540Z,3.37
2018-09-02T10:09:49.337Z,2.50
2018-09-02T10:12:23.752Z,3.70
2018-09-02T10:14:58.474Z,4.47
2018-09-02T10:17:33.104Z,4.47
2018-09-02T10:20:07.902Z,3.73
2018-09-02T10:22:42.549Z,4.17
2018-09-02T10:25:17.088Z,3.43
2018-09-02T10:27:51.805Z,3.90
2018-09-02T10:30:26.716Z,3.23
2018-09-02T10:33:01.239Z,5.17
2018-09-02T10:35:36.425Z,3.73
2018-09-02T10:38:11.217Z,5.37
2018-09-02T10:40:45.756Z,4.17
2018-09-02T10:43:22.063Z,5.03
2018-09-02T10:45:56.928Z,4.07
2018-09-02T10:54:29.184Z,3.27
2018-09-02T10:57:03.713Z,3.13
2018-09-02T10:59:38.816Z,3.10
2018-09-02T11:02:13.493Z,2.87
2018-09-02T11:04:48.140Z,3.63
2018-09-02T11:07:23.328Z,2.87
2018-09-02T11:09:57.813Z,3.27
2018-09-02T11:12:32.451Z,3.90
2018-09-02T11:15:07.490Z,3.43
2018-09-02T11:17:42.012Z,3.27
2018-09-02T11:20:16.633Z,4.90
2018-09-02T11:22:51.020Z,4.60
2018-09-02T11:25:25.485Z,3.57
2018-09-02T11:28:00.015Z,4.80
2018-09-02T11:30:34.678Z,5.33
2018-09-02T11:33:09.327Z,2.83
2018-09-02T11:38:55.640Z,3.03
2018-09-02T11:41:30.130Z,3.43
2018-09-02T11:44:04.920Z,4.60
2018-09-02T11:46:39.564Z,4.83
2018-09-02T11:49:14.076Z,4.40
2018-09-02T11:51:48.584Z,4.13
2018-09-02T11:54:23.241Z,6.63
2018-09-02T11:56:57.781Z,5.93
2018-09-02T11:59:32.457Z,4.47
2018-09-02T12:02:06.944Z,4.80
2018-09-02T12:04:41.364Z,5.20
2018-09-02T12:07:15.917Z,8.33
2018-09-02T12:09:50.395Z,5.63
2018-09-02T12:12:24.929Z,4.60
2018-09-02T12:14:59.396Z,4.20
2018-09-02T12:17:34.001Z,4.93
2018-09-02T12:20:08.881Z,3.90
2018-09-02T12:22:43.693Z,5.83
2018-09-02T12:25:18.472Z,5.60
2018-09-02T12:27:52.890Z,4.43
2018-09-02T12:33:46.939Z,5.93
2018-09-02T12:36:21.375Z,3.00
2018-09-02T12:38:56.165Z,4.53
2018-09-02T12:41:30.661Z,3.57
2018-09-02T12:44:05.126Z,3.10
2018-09-02T12:46:39.717Z,4.13
2018-09-02T12:49:14.273Z,4.10
2018-09-02T12:51:49.052Z,5.27
2018-09-02T12:54:23.767Z,3.33
2018-09-02T12:56:58.316Z,3.93
2018-09-02T12:59:32.941Z,4.23
2018-09-02T13:02:07.436Z,5.33
2018-09-02T13:04:41.843Z,3.50
2018-09-02T13:07:16.269Z,3.07
2018-09-02T13:09:50.813Z,4.43
2018-09-02T13:12:25.281Z,5.77
2018-09-02T13:14:59.872Z,3.83
2018-09-02T13:17:41.121Z,5.10
2018-09-02T13:20:15.597Z,3.33
2018-09-02T13:22:50.094Z,3.73
2018-09-02T13:25:24.957Z,2.77
2018-09-02T13:27:59.512Z,6.10
2018-09-02T13:30:34.153Z,3.00
2018-09-02T13:33:08.605Z,4.57
2018-09-02T13:35:42.978Z,3.70
2018-09-02T13:38:17.396Z,5.63
2018-09-02T13:40:51.985Z,2.60
2018-09-02T13:43:45.001Z,5.50
2018-09-02T13:46:19.344Z,3.73
2018-09-02T13:48:53.652Z,3.33
2018-09-02T13:51:28.180Z,3.23
2018-09-02T13:54:02.840Z,4.07
2018-09-02T13:56:37.482Z,2.80
2018-09-02T13:59:12.007Z,4.80
2018-09-02T14:01:46.564Z,5.63
2018-09-02T14:04:21.069Z,4.17
2018-09-02T14:06:55.635Z,4.13
2018-09-02T14:09:30.472Z,8.03
2018-09-02T14:12:05.297Z,3.00
2018-09-02T14:14:40.036Z,4.03
2018-09-02T14:17:14.500Z,2.50
2018-09-02T14:19:49.052Z,3.50
2018-09-02T14:22:23.512Z,3.40
2018-09-02T14:24:58.177Z,2.87
2018-09-02T14:27:32.673Z,3.50
2018-09-02T14:30:07.662Z,3.83
2018-09-02T14:32:42.148Z,4.20
2018-09-02T14:35:17.002Z,6.27
2018-09-02T14:37:51.357Z,3.50
2018-09-02T14:40:26.028Z,5.27
2018-09-02T14:43:00.673Z,4.27
2018-09-02T14:45:35.201Z,2.80
2018-09-02T14:48:09.616Z,3.50
2018-09-02T14:50:44.182Z,5.00
2018-09-02T14:53:18.511Z,2.87
2018-09-02T14:55:52.980Z,3.13
2018-09-02T14:58:27.533Z,2.30
2018-09-02T15:01:02.197Z,4.03
2018-09-02T15:03:36.821Z,2.30
2018-09-02T15:06:11.395Z,2.40
2018-09-02T15:08:45.842Z,2.70
2018-09-02T15:11:20.487Z,3.67
2018-09-02T15:13:54.989Z,2.50
2018-09-02T15:16:29.844Z,3.07
2018-09-02T15:19:05.608Z,2.87
2018-09-02T15:21:40.485Z,3.43
2018-09-02T15:24:15.233Z,3.97
2018-09-02T15:26:49.985Z,2.13
2018-09-02T15:29:24.646Z,3.43
2018-09-02T15:31:59.186Z,2.47
2018-09-02T15:34:33.720Z,4.53
2018-09-02T15:37:08.314Z,3.00
2018-09-02T15:39:42.869Z,3.40
2018-09-02T15:42:17.352Z,4.83
2018-09-02T15:44:51.817Z,3.30
2018-09-02T15:47:26.232Z,2.73
2018-09-02T15:50:00.701Z,4.57
2018-09-02T15:52:35.505Z,3.50
2018-09-02T15:55:10.024Z,2.43
2018-09-02T15:57:44.473Z,5.77
2018-09-02T16:00:19.048Z,5.33
2018-09-02T16:02:53.663Z,2.27
2018-09-02T16:05:28.128Z,3.07
2018-09-02T16:08:02.472Z,3.27
2018-09-02T16:10:37.133Z,4.30
2018-09-02T16:22:29.584Z,3.77
2018-09-02T16:25:04.216Z,8.67
2018-09-02T16:27:38.744Z,4.17
2018-09-02T16:30:13.068Z,7.03
2018-09-02T16:32:47.554Z,6.93
2018-09-02T16:35:22.056Z,3.57
2018-09-02T16:37:56.712Z,3.90
2018-09-02T16:40:31.397Z,3.20
2018-09-02T16:43:06.100Z,2.80
2018-09-02T16:45:40.576Z,2.43
2018-09-02T16:48:15.154Z,2.67
2018-09-02T16:50:49.725Z,2.10
2018-09-02T16:53:38.623Z,5.63
2018-09-02T16:56:13.152Z,2.90
2018-09-02T16:58:47.965Z,3.23
2018-09-02T17:01:22.554Z,3.03
2018-09-02T17:04:02.552Z,4.23
2018-09-02T17:06:37.684Z,3.63
2018-09-02T17:09:12.749Z,2.23
2018-09-02T17:11:47.625Z,4.17
2018-09-02T17:14:36.157Z,2.77
2018-09-02T17:17:10.633Z,3.17
2018-09-02T17:19:47.692Z,4.37
2018-09-02T17:22:22.271Z,3.83
2018-09-02T17:24:56.765Z,2.93
2018-09-02T17:27:31.240Z,3.63
2018-09-02T17:30:06.077Z,3.23
2018-09-02T17:32:40.571Z,2.30
2018-09-02T17:35:15.232Z,2.77
2018-09-02T17:37:49.769Z,3.40
2018-09-02T17:40:24.232Z,3.27
2018-09-02T17:42:58.782Z,3.87
2018-09-02T17:45:33.597Z,5.13
2018-09-02T17:48:08.269Z,3.77
2018-09-02T17:50:42.741Z,3.17
2018-09-02T17:53:17.194Z,2.30
2018-09-02T17:55:51.785Z,2.90
2018-09-02T17:58:26.345Z,3.10
2018-09-02T18:01:01.537Z,4.60
2018-09-02T18:06:35.706Z,3.63
2018-09-02T18:09:11.157Z,2.90
2018-09-02T18:11:45.770Z,2.53
2018-09-02T18:14:32.232Z,2.77
2018-09-02T18:17:06.972Z,2.93
2018-09-02T18:19:41.564Z,2.87
2018-09-02T18:22:16.268Z,4.10
2018-09-02T18:27:55.897Z,3.70
2018-09-02T18:30:30.507Z,6.80
2018-09-02T18:33:05.185Z,3.47
2018-09-02T18:35:39.941Z,2.90
2018-09-02T18:38:14.450Z,3.80
2018-09-02T18:40:48.877Z,4.53
2018-09-02T18:43:23.473Z,5.03
2018-09-02T18:45:58.043Z,2.33
2018-09-02T18:48:44.748Z,6.03
2018-09-02T18:54:20.260Z,3.07
2018-09-02T18:56:54.804Z,4.43
2018-09-02T18:59:29.447Z,2.50
2018-09-02T19:02:04.404Z,6.93
2018-09-02T19:04:39.169Z,2.47
2018-09-02T19:07:13.614Z,4.30
2018-09-02T19:09:48.328Z,2.33
2018-09-02T19:12:23.221Z,4.57
2018-09-02T19:14:57.958Z,4.67
2018-09-02T19:17:32.497Z,3.40
2018-09-02T19:20:07.477Z,3.10
2018-09-02T19:22:42.024Z,3.67
2018-09-02T19:25:16.785Z,2.57
2018-09-02T19:27:51.332Z,3.07
2018-09-02T19:30:25.976Z,2.50
2018-09-02T19:33:00.465Z,4.37
2018-09-02T19:35:35.017Z,4.63
2018-09-02T19:38:09.653Z,2.77
2018-09-02T19:40:44.204Z,3.20
2018-09-02T19:43:18.745Z,2.57
2018-09-02T19:45:53.384Z,3.73
2018-09-02T19:48:27.954Z,2.80
2018-09-02T19:51:02.568Z,3.70
2018-09-02T19:53:37.808Z,2.87
2018-09-02T19:56:12.344Z,3.20
2018-09-02T19:58:47.033Z,4.27
2018-09-02T20:01:21.528Z,5.37
2018-09-02T20:03:56.233Z,4.10
2018-09-02T20:06:30.733Z,3.33
2018-09-02T20:09:13.272Z,3.13
2018-09-02T20:11:48.094Z,2.93
2018-09-02T20:14:22.852Z,4.67
2018-09-02T20:16:57.802Z,3.10
2018-09-02T20:19:32.232Z,2.63
2018-09-02T20:22:09.236Z,3.73
2018-09-02T20:24:43.852Z,5.27
2018-09-02T20:27:18.234Z,6.03
2018-09-02T20:29:52.832Z,2.90
2018-09-02T20:32:27.272Z,3.40
2018-09-02T20:35:01.886Z,3.50
2018-09-02T20:37:36.448Z,4.37
2018-09-02T20:40:11.032Z,4.50
2018-09-02T20:42:45.593Z,4.20
2018-09-02T20:45:20.428Z,3.70
2018-09-02T20:47:55.384Z,5.67
2018-09-02T20:50:29.732Z,4.07
2018-09-02T20:53:04.149Z,3.00
2018-09-02T20:55:38.800Z,7.47
2018-09-02T20:58:13.334Z,7.47
2018-09-02T21:00:47.824Z,5.07
2018-09-02T21:03:22.303Z,4.73
2018-09-02T21:05:57.204Z,3.77
2018-09-02T21:08:31.827Z,4.23
2018-09-02T21:11:06.364Z,3.23
2018-09-02T21:13:40.958Z,3.50
2018-09-02T21:16:15.425Z,3.00
2018-09-02T21:18:49.961Z,4.67
2018-09-02T21:21:24.525Z,4.60
2018-09-02T21:23:59.037Z,4.47
2018-09-02T21:26:33.462Z,4.30
2018-09-02T21:29:07.924Z,3.33
2018-09-02T21:31:42.545Z,3.13
2018-09-02T21:34:17.014Z,3.10
2018-09-02T21:36:51.644Z,4.40
2018-09-02T21:39:26.063Z,3.20
2018-09-02T21:42:00.513Z,4.93
2018-09-02T21:44:35.219Z,4.10
2018-09-02T21:47:09.635Z,5.17
2018-09-02T21:49:44.533Z,4.10
2018-09-02T21:52:19.119Z,4.37
2018-09-02T21:54:53.732Z,5.33
2018-09-02T21:57:28.310Z,6.07
2018-09-02T22:00:03.155Z,6.27
2018-09-02T22:02:37.576Z,6.40
2018-09-02T22:05:13.492Z,3.93
2018-09-02T22:07:48.031Z,4.17
2018-09-02T22:10:22.554Z,5.60
2018-09-02T22:12:57.139Z,4.83
2018-09-02T22:15:31.997Z,4.90
2018-09-02T22:18:06.881Z,3.87
2018-09-02T22:20:41.424Z,3.57
2018-09-02T22:23:15.808Z,7.67
2018-09-02T22:25:50.264Z,6.60
2018-09-02T22:28:24.658Z,7.60
2018-09-02T22:30:59.237Z,4.20
2018-09-02T22:33:33.839Z,5.00
2018-09-02T22:36:08.541Z,5.23
2018-09-02T22:38:43.094Z,4.67
2018-09-02T22:41:17.504Z,6.33
2018-09-02T22:43:52.138Z,7.07
2018-09-02T22:46:26.680Z,4.77
2018-09-02T22:49:01.288Z,8.87
2018-09-02T22:51:35.901Z,5.70
2018-09-02T22:54:10.349Z,4.70
2018-09-02T22:56:44.961Z,4.13
2018-09-02T22:59:19.556Z,5.53
2018-09-02T23:01:54.048Z,4.93
2018-09-02T23:04:28.643Z,5.07
2018-09-02T23:07:03.246Z,4.37
2018-09-02T23:09:38.014Z,5.47
2018-09-02T23:12:12.629Z,5.47
2018-09-02T23:14:47.212Z,5.10
2018-09-02T23:17:21.744Z,8.00
2018-09-02T23:19:56.223Z,5.60
2018-09-02T23:22:30.728Z,5.87
2018-09-02T23:25:05.358Z,4.97
2018-09-02T23:27:40.026Z,6.10
2018-09-02T23:30:14.680Z,4.33
2018-09-02T23:32:49.324Z,4.10
2018-09-02T23:35:27.037Z,6.27
2018-09-02T23:38:14.758Z,7.20
2018-09-02T23:40:49.120Z,5.80
2018-09-02T23:43:23.609Z,6.20
2018-09-02T23:45:58.056Z,5.33
2018-09-02T23:48:32.464Z,6.43
2018-09-02T23:51:06.997Z,5.13
2018-09-02T23:53:41.621Z,6.47
2018-09-02T23:56:16.222Z,5.60
2018-09-02T23:58:50.938Z,5.27
